Time;durP1;ratioP1;P1;durP2;ratioP2;P2;SDS_P1;SDS_P2;PMS_P1;PMS_P2;Temp;Humidity;BMP_temperature;BMP_pressure;BME280_temperature;BME280_humidity;BME280_pressure;Samples;Min_cycle;Max_cycle;Signal;HPM_P1;HPM_P2
2023/07/26 00:00:35;;;;;;;19.85;6.85;;;20.60;99.90;;;;;;5062498;28;20048;-81
2023/07/26 00:03:03;;;;;;;19.05;7.28;;;20.60;99.90;;;;;;5072219;28;20468;-81
2023/07/26 00:05:31;;;;;;;14.38;6.70;;;20.70;99.90;;;;;;5076750;28;20037;-79
2023/07/26 00:08:00;;;;;;;15.65;6.70;;;20.70;99.90;;;;;;5070975;28;20708;-80
2023/07/26 00:10:27;;;;;;;14.02;6.05;;;20.70;99.90;;;;;;5073655;28;20415;-82
2023/07/26 00:12:55;;;;;;;16.73;6.30;;;20.60;99.90;;;;;;5075122;28;20040;-80
2023/07/26 00:15:22;;;;;;;14.02;6.47;;;20.50;99.90;;;;;;5074727;28;20047;-81
2023/07/26 00:17:50;;;;;;;11.93;6.15;;;20.50;99.90;;;;;;5075904;28;20628;-80
2023/07/26 00:20:17;;;;;;;15.32;6.53;;;20.50;99.90;;;;;;5072146;28;20048;-81
2023/07/26 00:22:45;;;;;;;17.40;6.03;;;20.60;99.90;;;;;;5072323;28;20043;-80
2023/07/26 00:25:13;;;;;;;12.10;6.43;;;20.60;99.90;;;;;;5058600;28;20044;-82
2023/07/26 00:27:41;;;;;;;21.45;7.50;;;20.60;99.90;;;;;;5068681;28;20679;-80
2023/07/26 00:30:09;;;;;;;21.42;7.25;;;20.60;99.90;;;;;;5067708;28;20044;-80
2023/07/26 00:32:37;;;;;;;17.08;6.43;;;20.60;99.90;;;;;;5072936;28;20041;-81
2023/07/26 00:35:04;;;;;;;12.60;6.95;;;20.60;99.90;;;;;;5059409;28;20052;-82
2023/07/26 00:37:32;;;;;;;17.45;6.05;;;20.60;99.90;;;;;;5072813;28;20045;-80
2023/07/26 00:39:59;;;;;;;12.50;6.10;;;20.60;99.90;;;;;;5073904;28;20032;-81
2023/07/26 00:42:28;;;;;;;14.88;6.20;;;20.60;99.90;;;;;;5078645;28;20036;-81
2023/07/26 00:44:55;;;;;;;16.65;7.68;;;20.60;99.90;;;;;;5057636;28;20040;-82
2023/07/26 00:47:23;;;;;;;13.52;7.95;;;20.50;99.90;;;;;;5058428;28;20041;-81
2023/07/26 00:49:51;;;;;;;14.73;7.20;;;20.60;99.90;;;;;;5053902;28;20036;-82
2023/07/26 00:52:18;;;;;;;17.77;6.82;;;20.60;99.90;;;;;;5073803;28;20538;-81
2023/07/26 00:54:46;;;;;;;20.08;7.32;;;20.60;99.90;;;;;;5057816;28;20040;-81
2023/07/26 00:57:15;;;;;;;15.52;6.70;;;20.60;99.90;;;;;;5072339;28;20051;-81
2023/07/26 00:59:43;;;;;;;18.48;7.88;;;20.60;99.90;;;;;;5068655;28;20052;-80
2023/07/26 01:02:12;;;;;;;15.93;7.22;;;20.80;99.90;;;;;;5080967;28;20319;-81
2023/07/26 01:04:40;;;;;;;19.30;7.38;;;20.80;99.90;;;;;;5088560;28;20040;-80
2023/07/26 01:07:14;;;;;;;12.70;7.88;;;20.70;99.90;;;;;;5082134;28;20041;-81
2023/07/26 01:09:47;;;;;;;35.95;20.30;;;20.70;99.90;;;;;;5077208;28;20040;-82
2023/07/26 01:12:20;;;;;;;13.23;7.50;;;20.80;99.90;;;;;;5057279;28;20094;-83
2023/07/26 01:14:55;;;;;;;13.73;6.50;;;20.90;99.90;;;;;;5059378;28;20036;-80
2023/07/26 01:17:22;;;;;;;16.42;6.55;;;21.00;99.90;;;;;;5058964;28;20373;-80
2023/07/26 01:19:49;;;;;;;10.98;6.50;;;21.00;99.90;;;;;;5057796;28;20032;-82
2023/07/26 01:22:19;;;;;;;11.35;5.90;;;21.10;99.90;;;;;;5075556;28;20070;-82
2023/07/26 01:24:47;;;;;;;8.23;4.10;;;21.20;99.90;;;;;;5079606;28;20040;-80
2023/07/26 01:27:14;;;;;;;10.35;4.70;;;21.20;99.90;;;;;;5063044;28;20047;-81
2023/07/26 01:29:42;;;;;;;9.60;4.53;;;21.30;99.90;;;;;;5081253;28;20045;-82
2023/07/26 01:32:12;;;;;;;7.45;4.35;;;21.30;99.90;;;;;;5079575;28;20032;-82
2023/07/26 01:34:40;;;;;;;7.82;3.85;;;21.40;99.90;;;;;;5081145;28;20040;-81
2023/07/26 01:37:08;;;;;;;8.15;3.75;;;21.40;99.90;;;;;;5062887;28;20040;-83
2023/07/26 01:39:37;;;;;;;9.48;4.10;;;21.40;99.90;;;;;;5081595;28;20044;-82
2023/07/26 01:42:06;;;;;;;7.88;4.05;;;21.40;99.90;;;;;;5061769;28;20607;-82
2023/07/26 01:44:37;;;;;;;7.07;4.00;;;21.40;99.90;;;;;;5080841;28;20427;-81
2023/07/26 01:47:05;;;;;;;8.10;4.15;;;21.50;99.90;;;;;;5063726;28;20037;-82
2023/07/26 01:49:33;;;;;;;7.10;3.55;;;21.30;99.90;;;;;;5081314;28;20178;-81
2023/07/26 01:52:00;;;;;;;7.60;3.85;;;21.30;99.90;;;;;;5081265;28;20125;-82
2023/07/26 01:54:28;;;;;;;8.50;3.33;;;21.20;99.90;;;;;;5063910;28;20036;-81
2023/07/26 01:56:57;;;;;;;6.40;3.20;;;21.20;99.90;;;;;;5062102;28;20542;-80
2023/07/26 01:59:25;;;;;;;11.00;3.65;;;21.20;99.90;;;;;;5062648;28;20153;-81
2023/07/26 02:01:52;;;;;;;5.47;3.20;;;21.30;99.90;;;;;;5053570;28;20051;-81
2023/07/26 02:04:20;;;;;;;6.38;3.03;;;21.20;99.90;;;;;;5049362;28;20072;-81
2023/07/26 02:06:47;;;;;;;6.40;3.15;;;21.20;99.90;;;;;;5078831;28;20029;-82
2023/07/26 02:09:15;;;;;;;6.80;3.60;;;21.20;99.90;;;;;;5079236;28;20037;-82
2023/07/26 02:11:42;;;;;;;5.75;3.35;;;21.10;99.90;;;;;;5087458;28;20028;-81
2023/07/26 02:14:11;;;;;;;6.13;3.33;;;21.00;99.90;;;;;;5062650;28;20053;-83
2023/07/26 02:16:38;;;;;;;7.25;3.35;;;20.90;99.90;;;;;;5074431;28;20123;-82
2023/07/26 02:19:06;;;;;;;5.70;3.08;;;20.80;99.90;;;;;;5073535;28;20067;-81
2023/07/26 02:21:33;;;;;;;69.78;7.65;;;20.80;99.90;;;;;;5073777;28;20041;-82
2023/07/26 02:24:01;;;;;;;10.15;4.22;;;20.70;99.90;;;;;;5053779;28;20094;-80
2023/07/26 02:26:28;;;;;;;10.35;4.78;;;19.70;99.90;;;;;;5053108;28;20051;-80
2023/07/26 02:28:56;;;;;;;8.82;4.63;;;19.70;99.90;;;;;;5051624;28;20060;-79
2023/07/26 02:31:25;;;;;;;24.63;5.53;;;19.60;99.90;;;;;;5068545;28;20064;-79
2023/07/26 02:33:52;;;;;;;6.78;4.30;;;19.20;99.90;;;;;;5052299;28;20151;-80
2023/07/26 02:36:19;;;;;;;6.57;4.30;;;18.90;99.90;;;;;;5060103;28;20071;-80
2023/07/26 02:38:47;;;;;;;9.65;4.60;;;18.80;99.90;;;;;;5051637;28;20048;-80
2023/07/26 02:41:15;;;;;;;7.10;4.20;;;18.80;99.90;;;;;;5043283;28;20036;-83
2023/07/26 02:43:42;;;;;;;5.65;4.25;;;18.80;99.90;;;;;;5052361;28;20047;-80
2023/07/26 02:46:11;;;;;;;6.25;4.18;;;18.70;99.90;;;;;;5070168;28;20048;-81
2023/07/26 02:48:40;;;;;;;6.40;4.35;;;18.60;99.90;;;;;;5050398;28;20143;-82
2023/07/26 02:51:08;;;;;;;8.30;3.90;;;18.60;99.90;;;;;;5059724;28;20037;-81
2023/07/26 02:53:35;;;;;;;6.95;3.90;;;18.60;99.90;;;;;;5051857;28;20390;-80
2023/07/26 02:56:03;;;;;;;8.10;4.10;;;18.60;99.90;;;;;;5051586;28;20131;-81
2023/07/26 02:58:30;;;;;;;7.45;4.13;;;18.60;99.90;;;;;;5073844;28;20044;-81
2023/07/26 03:00:58;;;;;;;5.45;3.65;;;18.70;99.90;;;;;;5055269;28;20054;-81
2023/07/26 03:03:25;;;;;;;5.80;3.45;;;18.70;99.90;;;;;;5052671;28;20135;-82
2023/07/26 03:05:57;;;;;;;6.45;3.40;;;18.70;99.90;;;;;;5069884;28;20052;-81
2023/07/26 03:08:24;;;;;;;6.25;4.28;;;18.70;99.90;;;;;;5069763;28;20052;-81
2023/07/26 03:10:53;;;;;;;5.22;3.78;;;18.90;99.90;;;;;;5051328;28;20382;-81
2023/07/26 03:13:20;;;;;;;6.07;3.70;;;18.90;99.90;;;;;;5068563;28;20481;-83
2023/07/26 03:15:48;;;;;;;8.40;3.97;;;19.00;99.90;;;;;;5070473;28;20082;-82
2023/07/26 03:18:16;;;;;;;7.68;3.88;;;19.10;99.90;;;;;;5051605;28;20043;-84
2023/07/26 03:20:46;;;;;;;4.53;3.40;;;19.20;99.90;;;;;;5052660;28;20072;-82
2023/07/26 03:23:15;;;;;;;6.38;3.60;;;19.00;99.90;;;;;;5050627;28;20041;-84
2023/07/26 03:25:43;;;;;;;7.43;4.05;;;19.10;99.90;;;;;;5051631;28;20062;-82
2023/07/26 03:28:11;;;;;;;5.30;3.33;;;19.10;99.90;;;;;;5068943;28;20040;-83
2023/07/26 03:30:38;;;;;;;8.60;3.50;;;19.20;99.90;;;;;;5050934;28;20053;-81
2023/07/26 03:33:05;;;;;;;5.65;3.40;;;19.40;99.90;;;;;;5069537;28;20041;-82
2023/07/26 03:35:33;;;;;;;6.00;3.70;;;19.40;99.90;;;;;;5068032;28;20049;-82
2023/07/26 03:38:00;;;;;;;5.05;3.10;;;19.50;99.90;;;;;;5069279;28;20036;-83
2023/07/26 03:40:29;;;;;;;7.20;3.40;;;19.60;99.90;;;;;;5067775;28;20039;-82
2023/07/26 03:42:56;;;;;;;6.38;3.20;;;19.50;99.90;;;;;;5050193;28;20091;-82
2023/07/26 03:45:26;;;;;;;7.45;3.53;;;19.60;99.90;;;;;;5069582;28;20043;-81
2023/07/26 03:47:54;;;;;;;6.15;3.42;;;20.00;99.90;;;;;;5068523;28;20492;-83
2023/07/26 03:50:22;;;;;;;6.88;2.92;;;20.10;99.90;;;;;;5068673;28;20048;-82
2023/07/26 03:52:49;;;;;;;6.45;3.40;;;20.10;99.90;;;;;;5069248;28;20051;-82
2023/07/26 03:55:17;;;;;;;8.25;3.70;;;20.10;99.90;;;;;;5051699;28;20048;-82
2023/07/26 03:57:46;;;;;;;5.72;3.55;;;20.10;99.90;;;;;;5049753;28;20125;-83
2023/07/26 04:00:14;;;;;;;4.65;2.92;;;20.10;99.90;;;;;;5067824;28;20033;-80
2023/07/26 04:02:41;;;;;;;5.28;3.45;;;20.20;99.90;;;;;;5048402;28;20056;-82
2023/07/26 04:05:09;;;;;;;4.88;3.00;;;20.20;99.90;;;;;;5039270;28;20135;-81
2023/07/26 04:07:37;;;;;;;7.82;3.35;;;20.30;99.90;;;;;;5037445;28;20072;-81
2023/07/26 04:10:05;;;;;;;4.90;2.47;;;20.30;99.90;;;;;;5035319;28;20033;-83
2023/07/26 04:12:33;;;;;;;4.05;2.80;;;20.40;99.90;;;;;;5030660;28;20057;-82
2023/07/26 04:15:02;;;;;;;5.45;2.42;;;20.30;99.90;;;;;;5044521;28;20037;-83
2023/07/26 04:17:29;;;;;;;4.13;2.80;;;20.20;99.90;;;;;;5048198;28;20041;-82
2023/07/26 04:19:57;;;;;;;7.82;3.28;;;20.20;99.90;;;;;;5044385;28;20321;-80
2023/07/26 04:22:24;;;;;;;5.82;3.47;;;20.30;99.90;;;;;;5040557;28;20106;-83
2023/07/26 04:24:52;;;;;;;7.38;3.65;;;20.40;99.90;;;;;;5037649;28;20045;-81
2023/07/26 04:27:19;;;;;;;5.05;3.00;;;20.50;99.90;;;;;;5046537;28;20045;-83
2023/07/26 04:29:46;;;;;;;5.07;2.95;;;20.50;99.90;;;;;;5044262;28;20046;-82
2023/07/26 04:32:15;;;;;;;4.70;3.17;;;20.60;99.90;;;;;;5043599;28;20044;-82
2023/07/26 04:34:42;;;;;;;12.60;4.00;;;20.50;99.90;;;;;;5039473;28;20045;-83
2023/07/26 04:37:10;;;;;;;4.47;2.92;;;20.50;99.90;;;;;;5032644;28;20033;-83
2023/07/26 04:39:37;;;;;;;6.97;3.35;;;20.60;99.90;;;;;;5048531;28;20041;-83
2023/07/26 04:42:05;;;;;;;3.75;2.60;;;20.80;99.90;;;;;;5040769;28;20144;-83
2023/07/26 04:44:33;;;;;;;6.20;2.95;;;20.70;99.90;;;;;;5036860;28;20069;-82
2023/07/26 04:47:00;;;;;;;4.18;2.60;;;20.80;99.90;;;;;;5040037;28;20049;-82
2023/07/26 04:49:29;;;;;;;3.92;2.78;;;20.90;99.90;;;;;;5042579;28;20045;-81
2023/07/26 04:51:56;;;;;;;6.15;3.20;;;21.00;99.90;;;;;;5040797;28;20045;-83
2023/07/26 04:54:24;;;;;;;5.90;3.08;;;21.20;99.90;;;;;;5043201;28;20056;-83
2023/07/26 04:56:51;;;;;;;6.15;2.70;;;21.30;99.90;;;;;;5044140;28;20060;-82
2023/07/26 04:59:18;;;;;;;7.00;4.13;;;21.30;99.90;;;;;;5028932;28;20412;-83
2023/07/26 05:01:46;;;;;;;5.15;2.80;;;21.30;99.90;;;;;;5046265;28;20044;-82
2023/07/26 05:04:13;;;;;;;6.65;3.10;;;21.40;99.90;;;;;;5081183;28;20064;-81
2023/07/26 05:06:42;;;;;;;6.80;3.55;;;21.40;99.90;;;;;;5079421;28;20080;-83
2023/07/26 05:09:09;;;;;;;4.45;2.70;;;21.40;99.90;;;;;;5072113;28;20052;-82
2023/07/26 05:11:37;;;;;;;6.18;3.25;;;21.20;99.90;;;;;;5072432;28;20464;-82
2023/07/26 05:14:04;;;;;;;4.30;2.70;;;21.10;99.90;;;;;;5065511;28;20065;-81
2023/07/26 05:16:32;;;;;;;6.53;2.75;;;21.10;99.90;;;;;;5068993;28;20044;-80
2023/07/26 05:19:00;;;;;;;5.28;2.63;;;20.90;99.90;;;;;;5071851;28;20040;-81
2023/07/26 05:21:27;;;;;;;6.60;2.70;;;21.00;99.90;;;;;;5060347;28;20025;-81
2023/07/26 05:23:56;;;;;;;4.55;2.35;;;20.90;99.90;;;;;;5093571;28;20052;-82
2023/07/26 05:26:23;;;;;;;6.75;3.83;;;21.00;99.90;;;;;;5094457;28;20025;-82
2023/07/26 05:28:51;;;;;;;5.03;3.40;;;21.10;99.90;;;;;;5089775;28;20129;-81
2023/07/26 05:31:18;;;;;;;5.25;2.63;;;21.20;99.90;;;;;;5050129;28;20041;-82
2023/07/26 05:33:46;;;;;;;4.70;2.60;;;21.40;99.90;;;;;;5041443;28;20464;-81
2023/07/26 05:36:13;;;;;;;7.50;2.60;;;21.50;99.90;;;;;;5073159;28;20036;-82
2023/07/26 05:38:40;;;;;;;6.07;2.58;;;21.70;99.90;;;;;;5067872;28;20043;-83
2023/07/26 05:41:12;;;;;;;4.15;2.40;;;21.70;99.90;;;;;;5071552;28;20032;-82
2023/07/26 05:43:39;;;;;;;5.88;2.40;;;22.00;99.90;;;;;;5073939;28;20040;-82
2023/07/26 05:46:07;;;;;;;4.55;2.30;;;22.30;99.90;;;;;;5072605;28;20045;-82
2023/07/26 05:48:34;;;;;;;6.57;2.55;;;22.20;99.90;;;;;;5068186;28;20154;-84
2023/07/26 05:51:03;;;;;;;5.45;2.35;;;22.60;99.90;;;;;;5074816;28;20044;-83
2023/07/26 05:53:30;;;;;;;2.75;2.00;;;22.70;99.90;;;;;;5056927;28;20048;-84
2023/07/26 05:55:57;;;;;;;5.05;2.67;;;22.60;99.90;;;;;;5077623;28;20041;-83
2023/07/26 05:58:26;;;;;;;6.72;5.05;;;22.60;99.90;;;;;;5052082;28;20041;-83
2023/07/26 06:00:54;;;;;;;8.23;7.38;;;22.70;99.90;;;;;;5069822;28;20041;-81
2023/07/26 06:03:22;;;;;;;6.30;3.08;;;22.70;99.90;;;;;;5073788;28;20143;-83
2023/07/26 06:05:50;;;;;;;6.30;3.10;;;22.80;99.90;;;;;;5074212;28;20043;-81
2023/07/26 06:08:19;;;;;;;5.13;3.08;;;22.70;99.90;;;;;;5072957;28;20400;-82
2023/07/26 06:10:46;;;;;;;10.32;5.28;;;22.70;99.90;;;;;;5070820;28;20040;-81
2023/07/26 06:13:13;;;;;;;8.68;3.70;;;22.70;99.90;;;;;;5075127;28;20516;-82
2023/07/26 06:15:43;;;;;;;8.55;4.32;;;22.70;99.90;;;;;;5079063;28;20047;-82
2023/07/26 06:18:10;;;;;;;10.88;6.38;;;22.50;99.90;;;;;;5076615;28;20044;-83
2023/07/26 06:20:37;;;;;;;7.45;4.20;;;22.40;99.90;;;;;;5058473;28;20044;-83
2023/07/26 06:23:06;;;;;;;5.60;3.38;;;22.40;99.90;;;;;;5073592;28;20468;-82
2023/07/26 06:25:34;;;;;;;7.03;3.38;;;22.30;99.90;;;;;;5072040;28;20128;-83
2023/07/26 06:28:01;;;;;;;9.23;5.28;;;22.20;99.90;;;;;;5060628;28;20187;-82
2023/07/26 06:30:28;;;;;;;5.25;3.00;;;22.10;99.90;;;;;;5059948;28;20044;-82
2023/07/26 06:32:57;;;;;;;4.22;3.05;;;22.00;99.90;;;;;;5073383;28;20124;-79
2023/07/26 06:35:25;;;;;;;6.18;2.97;;;21.60;99.90;;;;;;5049472;28;20382;-82
2023/07/26 06:37:52;;;;;;;5.00;3.28;;;21.30;99.90;;;;;;5077394;28;20110;-81
2023/07/26 06:40:22;;;;;;;4.40;3.40;;;21.20;99.90;;;;;;5073874;28;20116;-81
2023/07/26 06:42:54;;;;;;;6.88;3.38;;;21.10;99.90;;;;;;5072590;28;20075;-83
2023/07/26 06:45:22;;;;;;;4.18;2.97;;;21.00;99.90;;;;;;5062590;28;20055;-86
2023/07/26 06:47:49;;;;;;;66.40;48.38;;;20.80;99.90;;;;;;5085109;28;20064;-76
2023/07/26 06:50:18;;;;;;;14.02;9.55;;;20.80;99.90;;;;;;5074826;28;20503;-78
2023/07/26 06:52:46;;;;;;;4.80;3.63;;;20.80;99.90;;;;;;5079032;28;20515;-77
2023/07/26 06:55:13;;;;;;;25.55;18.75;;;20.90;99.90;;;;;;5071996;28;20053;-78
2023/07/26 06:57:41;;;;;;;8.32;5.50;;;20.90;99.90;;;;;;5076154;28;20047;-79
2023/07/26 07:00:12;;;;;;;21.05;15.25;;;21.00;99.90;;;;;;5078230;28;20071;-78
2023/07/26 07:02:40;;;;;;;6.43;4.50;;;21.20;99.90;;;;;;5071506;28;20440;-81
2023/07/26 07:05:08;;;;;;;8.40;4.05;;;21.30;99.90;;;;;;5072591;28;20049;-81
2023/07/26 07:07:37;;;;;;;6.28;4.07;;;21.00;99.90;;;;;;5071926;28;20028;-81
2023/07/26 07:10:06;;;;;;;6.38;4.07;;;21.20;99.90;;;;;;5053017;28;20129;-81
2023/07/26 07:12:34;;;;;;;9.70;5.07;;;21.40;99.90;;;;;;5074482;28;20039;-80
2023/07/26 07:15:04;;;;;;;8.80;4.72;;;21.40;99.90;;;;;;5053048;28;20504;-79
2023/07/26 07:17:32;;;;;;;11.60;7.95;;;21.60;99.90;;;;;;5075078;28;20040;-81
2023/07/26 07:20:00;;;;;;;10.05;5.72;;;21.70;99.90;;;;;;5055703;28;20131;-80
2023/07/26 07:22:27;;;;;;;8.50;5.53;;;21.80;99.90;;;;;;5077125;28;20033;-79
2023/07/26 07:24:56;;;;;;;10.82;7.40;;;21.90;99.90;;;;;;5081070;28;20056;-80
2023/07/26 07:27:27;;;;;;;7.25;4.20;;;22.00;99.90;;;;;;5079416;28;20127;-79
2023/07/26 07:29:54;;;;;;;9.02;6.25;;;22.00;99.90;;;;;;5075168;28;20045;-79
2023/07/26 07:32:23;;;;;;;18.98;5.40;;;22.00;99.90;;;;;;5075761;28;20069;-80
2023/07/26 07:34:51;;;;;;;6.53;4.03;;;22.00;99.90;;;;;;5052233;28;20094;-82
2023/07/26 07:37:18;;;;;;;7.05;4.30;;;22.00;99.90;;;;;;5069275;28;20062;-83
2023/07/26 07:39:46;;;;;;;7.55;5.65;;;21.90;99.90;;;;;;5068444;28;20514;-80
2023/07/26 07:42:15;;;;;;;7.47;5.00;;;22.00;99.90;;;;;;5068976;28;20480;-81
2023/07/26 07:44:42;;;;;;;12.23;4.93;;;22.00;99.90;;;;;;5064862;28;20166;-81
2023/07/26 07:47:09;;;;;;;10.95;6.18;;;22.00;99.90;;;;;;5067257;28;20040;-81
2023/07/26 07:49:37;;;;;;;19.88;7.60;;;22.10;99.90;;;;;;5068605;28;20036;-80
2023/07/26 07:52:05;;;;;;;29.27;12.00;;;22.10;99.90;;;;;;5068583;28;20093;-79
2023/07/26 07:54:36;;;;;;;21.52;8.68;;;22.10;99.90;;;;;;5041173;28;20158;-78
2023/07/26 07:57:03;;;;;;;13.57;9.07;;;22.10;99.90;;;;;;5068746;28;20963;-81
2023/07/26 07:59:32;;;;;;;8.70;6.45;;;22.10;99.90;;;;;;5067722;28;20040;-80
2023/07/26 08:02:00;;;;;;;10.95;7.25;;;22.10;99.90;;;;;;5050535;28;20049;-81
2023/07/26 08:04:27;;;;;;;11.85;5.90;;;22.10;99.90;;;;;;5072419;28;20048;-80
2023/07/26 08:06:55;;;;;;;7.70;4.10;;;22.00;99.90;;;;;;5068538;28;20048;-81
2023/07/26 08:09:22;;;;;;;7.45;4.13;;;21.90;99.90;;;;;;5072542;28;20123;-81
2023/07/26 08:11:49;;;;;;;6.82;3.22;;;21.80;99.90;;;;;;5077717;28;20650;-80
2023/07/26 08:14:17;;;;;;;9.60;5.05;;;21.60;99.90;;;;;;5076501;28;20044;-81
2023/07/26 08:16:46;;;;;;;9.57;6.72;;;21.60;99.90;;;;;;5076508;28;20044;-79
2023/07/26 08:19:13;;;;;;;9.85;6.20;;;21.60;99.90;;;;;;5069665;28;20131;-79
2023/07/26 08:21:40;;;;;;;10.02;6.72;;;21.70;99.90;;;;;;5078108;28;20040;-79
2023/07/26 08:24:08;;;;;;;7.97;3.50;;;21.70;99.90;;;;;;5057246;28;20044;-79
2023/07/26 08:26:35;;;;;;;16.33;4.78;;;21.80;99.90;;;;;;5057982;28;20060;-81
2023/07/26 08:29:03;;;;;;;6.97;4.05;;;21.80;99.90;;;;;;5070378;28;20050;-80
2023/07/26 08:31:30;;;;;;;6.53;4.18;;;21.90;99.90;;;;;;5058651;28;20051;-81
2023/07/26 08:33:59;;;;;;;7.85;4.57;;;21.90;99.90;;;;;;5075590;28;20055;-80
2023/07/26 08:36:27;;;;;;;5.03;3.10;;;22.10;99.90;;;;;;5071148;28;20040;-80
2023/07/26 08:38:54;;;;;;;8.15;3.97;;;22.20;99.90;;;;;;5072082;28;20570;-78
2023/07/26 08:41:22;;;;;;;6.13;3.78;;;22.30;99.90;;;;;;5078096;28;20036;-81
2023/07/26 08:43:52;;;;;;;11.68;6.80;;;22.40;99.90;;;;;;5072622;28;20049;-79
2023/07/26 08:46:20;;;;;;;8.95;6.15;;;22.60;99.90;;;;;;5071613;28;20040;-80
2023/07/26 08:48:47;;;;;;;7.20;5.50;;;22.70;99.90;;;;;;5076381;28;20181;-81
2023/07/26 08:51:17;;;;;;;9.25;5.25;;;22.90;99.90;;;;;;5079456;28;20040;-80
2023/07/26 08:53:45;;;;;;;5.22;3.85;;;22.90;99.90;;;;;;5073005;28;20040;-81
2023/07/26 08:56:15;;;;;;;5.97;3.50;;;22.90;99.90;;;;;;5073855;28;20749;-82
2023/07/26 08:58:43;;;;;;;7.53;4.30;;;23.00;99.90;;;;;;5071275;28;20056;-81
2023/07/26 09:01:11;;;;;;;5.90;2.70;;;22.90;99.90;;;;;;5071216;28;20074;-81
2023/07/26 09:03:38;;;;;;;5.55;2.33;;;22.80;99.90;;;;;;5072850;28;20041;-81
2023/07/26 09:06:08;;;;;;;4.93;2.80;;;22.70;99.90;;;;;;5060653;28;20412;-80
2023/07/26 09:08:37;;;;;;;5.38;3.08;;;22.80;99.90;;;;;;5092727;28;20126;-79
2023/07/26 09:11:20;;;;;;;6.15;3.60;;;23.00;99.90;;;;;;5080231;28;20043;-81
2023/07/26 09:13:54;;;;;;;6.35;3.53;;;23.10;99.90;;;;;;5067103;28;20045;-77
2023/07/26 09:16:21;;;;;;;5.40;3.00;;;23.20;99.90;;;;;;5066648;28;20052;-80
2023/07/26 09:19:00;;;;;;;5.35;2.85;;;23.40;99.90;;;;;;5069652;28;20040;-80
2023/07/26 09:21:29;;;;;;;4.90;3.20;;;23.10;99.90;;;;;;5058135;28;20052;-79
2023/07/26 09:23:58;;;;;;;10.65;4.28;;;23.20;99.90;;;;;;5071575;28;20054;-79
2023/07/26 09:26:35;;;;;;;5.82;3.25;;;23.30;99.90;;;;;;5074029;28;20057;-82
2023/07/26 09:29:03;;;;;;;8.10;4.78;;;23.40;99.90;;;;;;5073155;28;20056;-84
2023/07/26 09:31:32;;;;;;;6.22;3.03;;;23.30;99.90;;;;;;5076583;28;20067;-81
2023/07/26 09:34:00;;;;;;;8.25;5.47;;;23.40;99.90;;;;;;5068873;28;20052;-83
2023/07/26 09:36:41;;;;;;;5.95;3.13;;;23.50;99.90;;;;;;5054523;28;20052;-83
2023/07/26 09:39:10;;;;;;;7.22;3.15;;;23.60;99.90;;;;;;5072426;28;20502;-83
2023/07/26 09:41:38;;;;;;;5.93;3.80;;;23.40;99.90;;;;;;5072261;28;20036;-81
2023/07/26 09:44:06;;;;;;;6.63;3.08;;;23.30;99.90;;;;;;5075436;28;20403;-83
2023/07/26 09:46:48;;;;;;;4.63;2.90;;;23.00;99.90;;;;;;5072870;28;20048;-81
2023/07/26 09:49:15;;;;;;;4.28;3.30;;;22.80;99.90;;;;;;5078533;28;20036;-80
2023/07/26 09:51:44;;;;;;;6.90;3.38;;;22.90;99.90;;;;;;5064899;28;20036;-82
2023/07/26 09:54:15;;;;;;;6.07;2.80;;;23.00;99.90;;;;;;5072276;28;20048;-82
2023/07/26 09:56:42;;;;;;;6.68;2.92;;;23.00;99.90;;;;;;5074170;28;20045;-83
2023/07/26 09:59:11;;;;;;;12.00;9.13;;;23.20;99.90;;;;;;5063231;28;20416;-82
2023/07/26 10:01:43;;;;;;;10.05;4.50;;;23.60;99.90;;;;;;5075154;28;20036;-82
2023/07/26 10:04:13;;;;;;;3.88;2.42;;;23.80;99.90;;;;;;5075978;28;20036;-83
2023/07/26 10:06:47;;;;;;;5.63;3.70;;;24.10;99.90;;;;;;5079369;28;20040;-88
2023/07/26 10:09:21;;;;;;;15.20;9.05;;;24.20;99.90;;;;;;5076978;28;20504;-80
2023/07/26 10:11:49;;;;;;;261.63;200.25;;;24.40;99.90;;;;;;5060504;28;20079;-79
2023/07/26 10:14:20;;;;;;;9.95;7.47;;;24.60;99.90;;;;;;5065532;28;20075;-80
2023/07/26 10:16:50;;;;;;;10.88;6.00;;;24.60;99.90;;;;;;5066410;28;20384;-83
2023/07/26 10:19:23;;;;;;;5.18;3.53;;;24.50;99.90;;;;;;5077047;28;20040;-82
2023/07/26 10:21:52;;;;;;;7.47;5.53;;;24.40;99.90;;;;;;5079470;28;20485;-81
2023/07/26 10:24:23;;;;;;;9.93;5.72;;;24.30;99.90;;;;;;5080114;28;20115;-79
2023/07/26 10:26:52;;;;;;;7.88;5.75;;;24.30;99.90;;;;;;5075675;28;20090;-79
2023/07/26 10:29:21;;;;;;;7.18;5.22;;;24.10;99.90;;;;;;5092301;28;20068;-81
2023/07/26 10:32:00;;;;;;;8.30;5.20;;;23.90;99.90;;;;;;5084916;28;20048;-83
2023/07/26 10:34:28;;;;;;;8.40;5.28;;;23.70;99.90;;;;;;5076421;28;20502;-84
2023/07/26 10:36:56;;;;;;;7.55;4.68;;;23.50;99.90;;;;;;5074000;28;20139;-83
2023/07/26 10:39:33;;;;;;;13.93;8.70;;;23.40;99.90;;;;;;5064114;28;20074;-80
2023/07/26 10:42:03;;;;;;;12.15;7.78;;;23.20;99.90;;;;;;5075453;28;20507;-82
2023/07/26 10:44:30;;;;;;;13.32;6.60;;;23.00;99.90;;;;;;5062714;28;20189;-83
2023/07/26 10:47:03;;;;;;;8.80;6.00;;;23.00;99.90;;;;;;5077915;28;20044;-81
2023/07/26 10:49:31;;;;;;;14.65;9.18;;;23.00;99.90;;;;;;5072846;28;20043;-82
2023/07/26 10:52:02;;;;;;;11.00;5.00;;;22.90;99.90;;;;;;5080515;28;20036;-82
2023/07/26 10:54:36;;;;;;;8.77;4.32;;;22.90;99.90;;;;;;5054982;28;21123;-81
2023/07/26 10:57:17;;;;;;;11.23;6.10;;;22.80;99.90;;;;;;5062623;28;20041;-80
2023/07/26 11:00:00;;;;;;;9.25;5.20;;;22.70;99.90;;;;;;5070727;28;20040;-83
2023/07/26 11:02:43;;;;;;;5.32;3.15;;;22.70;99.90;;;;;;5052045;28;20416;-80
2023/07/26 11:05:13;;;;;;;6.90;3.30;;;22.30;99.90;;;;;;5048465;28;20064;-82
2023/07/26 11:07:55;;;;;;;7.45;2.97;;;21.80;99.90;;;;;;5049873;28;20103;-83
2023/07/26 11:10:28;;;;;;;6.20;2.90;;;21.30;99.90;;;;;;5048895;28;20037;-81
2023/07/26 11:13:11;;;;;;;12.80;3.22;;;21.00;99.90;;;;;;5049615;28;20120;-82
2023/07/26 11:15:41;;;;;;;6.25;2.90;;;20.70;99.90;;;;;;5049606;28;20111;-83
2023/07/26 11:18:08;;;;;;;4.50;2.63;;;20.60;99.90;;;;;;5049158;28;20501;-81
2023/07/26 11:20:39;;;;;;;7.68;4.68;;;20.60;99.90;;;;;;5047492;28;20116;-81
2023/07/26 11:23:17;;;;;;;6.40;2.67;;;20.50;99.90;;;;;;5051901;28;20041;-82
2023/07/26 11:25:47;;;;;;;4.53;2.83;;;20.60;99.90;;;;;;5051882;28;20090;-81
2023/07/26 11:28:15;;;;;;;4.75;3.25;;;20.60;99.90;;;;;;5051754;28;20404;-81
2023/07/26 11:30:47;;;;;;;7.63;4.70;;;20.60;99.90;;;;;;5051150;28;20114;-80
2023/07/26 11:33:14;;;;;;;9.07;3.20;;;20.70;99.90;;;;;;5051844;28;20099;-81
2023/07/26 11:35:43;;;;;;;6.28;3.03;;;20.80;99.90;;;;;;5052112;28;20052;-83
2023/07/26 11:38:14;;;;;;;6.18;2.90;;;20.80;99.90;;;;;;5049562;28;20041;-81
2023/07/26 11:40:44;;;;;;;4.43;3.00;;;20.70;99.90;;;;;;5049504;28;20045;-83
2023/07/26 11:43:13;;;;;;;6.35;2.83;;;20.80;99.90;;;;;;5049037;28;20133;-82
2023/07/26 11:45:43;;;;;;;6.43;2.55;;;20.70;99.90;;;;;;5051521;28;20512;-82
2023/07/26 11:48:14;;;;;;;7.07;3.15;;;20.80;99.90;;;;;;5050772;28;20048;-83
2023/07/26 11:50:42;;;;;;;6.95;3.45;;;20.90;99.90;;;;;;5050636;28;20124;-82
2023/07/26 11:53:10;;;;;;;4.57;3.05;;;20.90;99.90;;;;;;5051680;28;20045;-83
2023/07/26 11:55:40;;;;;;;4.22;2.97;;;20.90;99.90;;;;;;5041111;28;20056;-82
2023/07/26 11:58:09;;;;;;;5.82;2.60;;;20.90;99.90;;;;;;5047221;28;20508;-83
2023/07/26 12:00:42;;;;;;;5.35;2.50;;;21.00;99.90;;;;;;5029957;28;20033;-81
2023/07/26 12:03:09;;;;;;;5.90;2.63;;;21.00;99.90;;;;;;5046358;28;20053;-84
2023/07/26 12:05:42;;;;;;;9.63;4.53;;;20.80;99.90;;;;;;5065744;28;20041;-84
2023/07/26 12:08:10;;;;;;;4.47;2.30;;;20.70;99.90;;;;;;5069381;28;20047;-84
2023/07/26 12:10:38;;;;;;;8.68;2.17;;;20.80;99.90;;;;;;5070717;28;20059;-84
2023/07/26 12:13:21;;;;;;;4.53;2.38;;;20.90;99.90;;;;;;5053967;28;20036;-84
2023/07/26 12:15:53;;;;;;;7.13;3.03;;;20.70;99.90;;;;;;5076720;28;20044;-84
2023/07/26 12:18:22;;;;;;;5.65;2.45;;;20.90;99.90;;;;;;5041353;28;20062;-82
2023/07/26 12:20:57;;;;;;;7.32;2.50;;;21.10;99.90;;;;;;5067949;28;20048;-83
2023/07/26 12:23:26;;;;;;;4.03;2.13;;;21.10;99.90;;;;;;5045055;28;20044;-83
2023/07/26 12:25:56;;;;;;;5.63;2.00;;;20.90;99.90;;;;;;5055125;28;20279;-83
2023/07/26 12:28:41;;;;;;;3.72;2.05;;;20.90;99.90;;;;;;5033825;28;20509;-81
2023/07/26 12:31:19;;;;;;;4.65;2.22;;;21.00;99.90;;;;;;5066949;28;20048;-80
2023/07/26 12:33:58;;;;;;;5.53;3.47;;;21.00;99.90;;;;;;5056244;28;20033;-82
2023/07/26 12:36:28;;;;;;;7.05;4.25;;;21.10;99.90;;;;;;5054956;28;20037;-85
2023/07/26 12:38:57;;;;;;;6.30;3.97;;;21.30;99.90;;;;;;5040653;28;20131;-83
2023/07/26 12:41:25;;;;;;;7.65;3.63;;;21.50;99.90;;;;;;5052469;28;20049;-83
2023/07/26 12:43:53;;;;;;;5.75;4.00;;;21.70;99.90;;;;;;5053326;28;20137;-83
2023/07/26 12:46:24;;;;;;;8.73;2.83;;;21.70;99.90;;;;;;5053841;28;20049;-82
2023/07/26 12:48:55;;;;;;;7.05;2.45;;;21.70;99.90;;;;;;5049087;28;20043;-82
2023/07/26 12:51:23;;;;;;;4.35;2.45;;;21.70;99.90;;;;;;5055205;28;20037;-82